sensor_id;sensor_type;location;lat;lon;timestamp;temperature;humidity
15152;DHT22;7676;50.900;6.234;2022-08-21T00:04:54;21.80;99.90
15152;DHT22;7676;50.900;6.234;2022-08-21T00:09:59;21.80;99.90
15152;DHT22;7676;50.900;6.234;2022-08-21T00:15:01;21.70;99.90
15152;DHT22;7676;50.900;6.234;2022-08-21T00:20:06;21.70;99.90
15152;DHT22;7676;50.900;6.234;2022-08-21T00:25:10;21.70;99.90
15152;DHT22;7676;50.900;6.234;2022-08-21T00:30:15;21.70;99.90
15152;DHT22;7676;50.900;6.234;2022-08-21T00:35:29;21.50;99.90
15152;DHT22;7676;50.900;6.234;2022-08-21T00:40:39;21.50;99.90
15152;DHT22;7676;50.900;6.234;2022-08-21T00:45:42;21.40;99.90
15152;DHT22;7676;50.900;6.234;2022-08-21T00:51:32;21.40;99.90
15152;DHT22;7676;50.900;6.234;2022-08-21T00:56:13;21.40;99.90
15152;DHT22;7676;50.900;6.234;2022-08-21T01:01:16;21.30;99.90
15152;DHT22;7676;50.900;6.234;2022-08-21T01:06:20;21.20;99.90
15152;DHT22;7676;50.900;6.234;2022-08-21T01:11:22;21.10;99.90
15152;DHT22;7676;50.900;6.234;2022-08-21T01:16:25;21.10;99.90
15152;DHT22;7676;50.900;6.234;2022-08-21T01:21:27;21.00;99.90
15152;DHT22;7676;50.900;6.234;2022-08-21T01:26:32;20.90;99.90
15152;DHT22;7676;50.900;6.234;2022-08-21T01:31:36;21.00;99.90
15152;DHT22;7676;50.900;6.234;2022-08-21T01:36:39;20.90;99.90
15152;DHT22;7676;50.900;6.234;2022-08-21T01:41:41;20.90;99.90
15152;DHT22;7676;50.900;6.234;2022-08-21T01:46:44;20.80;99.90
15152;DHT22;7676;50.900;6.234;2022-08-21T01:51:46;20.70;99.90
15152;DHT22;7676;50.900;6.234;2022-08-21T01:56:51;20.70;99.90
15152;DHT22;7676;50.900;6.234;2022-08-21T02:01:54;20.70;99.90
15152;DHT22;7676;50.900;6.234;2022-08-21T02:06:58;20.30;99.90
15152;DHT22;7676;50.900;6.234;2022-08-21T02:12:01;20.00;99.90
15152;DHT22;7676;50.900;6.234;2022-08-21T02:17:03;19.90;99.90
15152;DHT22;7676;50.900;6.234;2022-08-21T02:22:10;19.80;99.90
15152;DHT22;7676;50.900;6.234;2022-08-21T02:27:13;19.80;99.90
15152;DHT22;7676;50.900;6.234;2022-08-21T02:32:15;19.90;99.90
15152;DHT22;7676;50.900;6.234;2022-08-21T02:37:17;19.90;99.90
15152;DHT22;7676;50.900;6.234;2022-08-21T02:42:20;19.90;99.90
15152;DHT22;7676;50.900;6.234;2022-08-21T02:47:22;20.10;99.90
15152;DHT22;7676;50.900;6.234;2022-08-21T02:52:24;20.10;99.90
15152;DHT22;7676;50.900;6.234;2022-08-21T02:57:26;20.20;99.90
15152;DHT22;7676;50.900;6.234;2022-08-21T03:02:29;20.30;99.90
15152;DHT22;7676;50.900;6.234;2022-08-21T03:12:35;20.20;99.90
15152;DHT22;7676;50.900;6.234;2022-08-21T03:17:37;20.00;99.90
15152;DHT22;7676;50.900;6.234;2022-08-21T03:22:40;20.00;99.90
15152;DHT22;7676;50.900;6.234;2022-08-21T03:27:48;20.20;99.90
15152;DHT22;7676;50.900;6.234;2022-08-21T03:32:59;20.10;99.90
15152;DHT22;7676;50.900;6.234;2022-08-21T03:38:03;20.10;99.90
15152;DHT22;7676;50.900;6.234;2022-08-21T03:43:05;20.10;99.90
15152;DHT22;7676;50.900;6.234;2022-08-21T03:48:11;20.10;99.90
15152;DHT22;7676;50.900;6.234;2022-08-21T03:53:15;20.10;99.90
15152;DHT22;7676;50.900;6.234;2022-08-21T03:58:22;20.10;99.90
15152;DHT22;7676;50.900;6.234;2022-08-21T04:03:25;20.10;99.90
15152;DHT22;7676;50.900;6.234;2022-08-21T04:08:28;20.00;99.90
15152;DHT22;7676;50.900;6.234;2022-08-21T04:13:32;19.90;99.90
15152;DHT22;7676;50.900;6.234;2022-08-21T04:18:34;19.90;99.90
15152;DHT22;7676;50.900;6.234;2022-08-21T04:23:37;19.70;99.90
15152;DHT22;7676;50.900;6.234;2022-08-21T04:28:39;19.60;99.90
15152;DHT22;7676;50.900;6.234;2022-08-21T04:33:41;19.50;99.90
15152;DHT22;7676;50.900;6.234;2022-08-21T04:38:44;19.40;99.90
15152;DHT22;7676;50.900;6.234;2022-08-21T04:43:46;19.30;99.90
15152;DHT22;7676;50.900;6.234;2022-08-21T04:48:48;19.10;99.90
15152;DHT22;7676;50.900;6.234;2022-08-21T04:53:54;19.20;99.90
15152;DHT22;7676;50.900;6.234;2022-08-21T04:59:02;19.60;99.90
15152;DHT22;7676;50.900;6.234;2022-08-21T05:04:08;19.90;99.90
15152;DHT22;7676;50.900;6.234;2022-08-21T05:09:15;20.30;99.90
15152;DHT22;7676;50.900;6.234;2022-08-21T05:14:18;20.90;99.90
15152;DHT22;7676;50.900;6.234;2022-08-21T05:19:21;21.50;99.90
15152;DHT22;7676;50.900;6.234;2022-08-21T05:24:23;21.80;99.90
15152;DHT22;7676;50.900;6.234;2022-08-21T05:29:26;22.10;99.90
15152;DHT22;7676;50.900;6.234;2022-08-21T05:34:30;22.30;99.90
15152;DHT22;7676;50.900;6.234;2022-08-21T05:39:32;22.30;99.90
15152;DHT22;7676;50.900;6.234;2022-08-21T05:44:55;22.50;99.90
15152;DHT22;7676;50.900;6.234;2022-08-21T05:49:57;22.90;99.90
15152;DHT22;7676;50.900;6.234;2022-08-21T05:54:59;23.20;99.90
15152;DHT22;7676;50.900;6.234;2022-08-21T06:00:03;23.50;99.90
15152;DHT22;7676;50.900;6.234;2022-08-21T06:05:14;23.50;99.90
15152;DHT22;7676;50.900;6.234;2022-08-21T06:10:36;23.70;99.90
15152;DHT22;7676;50.900;6.234;2022-08-21T06:15:38;24.00;99.90
15152;DHT22;7676;50.900;6.234;2022-08-21T06:20:41;24.40;99.90
15152;DHT22;7676;50.900;6.234;2022-08-21T06:25:43;24.30;99.90
15152;DHT22;7676;50.900;6.234;2022-08-21T06:30:46;24.20;99.90
15152;DHT22;7676;50.900;6.234;2022-08-21T06:35:48;24.00;99.90
15152;DHT22;7676;50.900;6.234;2022-08-21T06:40:51;24.10;99.90
15152;DHT22;7676;50.900;6.234;2022-08-21T06:45:53;24.00;99.90
15152;DHT22;7676;50.900;6.234;2022-08-21T06:50:57;24.30;99.90
15152;DHT22;7676;50.900;6.234;2022-08-21T06:56:00;24.20;99.90
15152;DHT22;7676;50.900;6.234;2022-08-21T07:01:03;23.90;99.90
15152;DHT22;7676;50.900;6.234;2022-08-21T07:06:08;23.70;99.90
15152;DHT22;7676;50.900;6.234;2022-08-21T07:11:17;23.50;99.90
15152;DHT22;7676;50.900;6.234;2022-08-21T07:16:20;23.70;99.90
15152;DHT22;7676;50.900;6.234;2022-08-21T07:21:22;23.70;99.90
15152;DHT22;7676;50.900;6.234;2022-08-21T07:26:27;23.80;99.90
15152;DHT22;7676;50.900;6.234;2022-08-21T07:31:29;23.50;99.90
15152;DHT22;7676;50.900;6.234;2022-08-21T07:36:31;23.30;99.90
15152;DHT22;7676;50.900;6.234;2022-08-21T07:41:36;23.00;99.90
15152;DHT22;7676;50.900;6.234;2022-08-21T07:46:39;23.10;99.90
15152;DHT22;7676;50.900;6.234;2022-08-21T07:51:41;23.00;99.90
15152;DHT22;7676;50.900;6.234;2022-08-21T07:56:44;22.80;99.90
15152;DHT22;7676;50.900;6.234;2022-08-21T08:01:46;22.90;99.90
15152;DHT22;7676;50.900;6.234;2022-08-21T08:06:48;23.30;99.90
15152;DHT22;7676;50.900;6.234;2022-08-21T08:11:51;23.00;99.90
15152;DHT22;7676;50.900;6.234;2022-08-21T08:16:53;22.90;99.90
15152;DHT22;7676;50.900;6.234;2022-08-21T08:21:55;23.00;99.90
15152;DHT22;7676;50.900;6.234;2022-08-21T08:26:58;23.10;99.90
15152;DHT22;7676;50.900;6.234;2022-08-21T08:32:00;23.30;99.90
15152;DHT22;7676;50.900;6.234;2022-08-21T08:37:04;23.40;99.90
15152;DHT22;7676;50.900;6.234;2022-08-21T08:42:12;23.40;99.90
15152;DHT22;7676;50.900;6.234;2022-08-21T08:47:42;23.20;99.90
15152;DHT22;7676;50.900;6.234;2022-08-21T08:52:53;23.40;99.90
15152;DHT22;7676;50.900;6.234;2022-08-21T08:57:56;23.40;99.90
15152;DHT22;7676;50.900;6.234;2022-08-21T09:03:01;23.50;99.90
15152;DHT22;7676;50.900;6.234;2022-08-21T09:13:33;23.70;99.90
15152;DHT22;7676;50.900;6.234;2022-08-21T09:18:54;23.60;99.90
15152;DHT22;7676;50.900;6.234;2022-08-21T09:24:29;23.70;99.90
15152;DHT22;7676;50.900;6.234;2022-08-21T09:29:37;24.10;99.90
15152;DHT22;7676;50.900;6.234;2022-08-21T09:34:40;24.40;99.90
15152;DHT22;7676;50.900;6.234;2022-08-21T09:39:42;24.60;99.90
15152;DHT22;7676;50.900;6.234;2022-08-21T09:45:06;24.70;99.90
15152;DHT22;7676;50.900;6.234;2022-08-21T09:50:20;24.80;99.90
15152;DHT22;7676;50.900;6.234;2022-08-21T09:55:32;25.00;99.90
15152;DHT22;7676;50.900;6.234;2022-08-21T10:00:59;25.10;99.90
15152;DHT22;7676;50.900;6.234;2022-08-21T10:06:05;25.00;99.90
15152;DHT22;7676;50.900;6.234;2022-08-21T10:11:13;25.10;99.90
15152;DHT22;7676;50.900;6.234;2022-08-21T10:16:49;25.50;99.90
15152;DHT22;7676;50.900;6.234;2022-08-21T10:27:14;25.60;99.90
15152;DHT22;7676;50.900;6.234;2022-08-21T10:48:06;26.00;99.90
15152;DHT22;7676;50.900;6.234;2022-08-21T10:53:32;26.40;99.90
15152;DHT22;7676;50.900;6.234;2022-08-21T10:58:46;26.60;99.90
15152;DHT22;7676;50.900;6.234;2022-08-21T11:03:55;26.70;99.90
15152;DHT22;7676;50.900;6.234;2022-08-21T11:09:11;27.00;99.90
15152;DHT22;7676;50.900;6.234;2022-08-21T11:19:48;26.80;99.90
15152;DHT22;7676;50.900;6.234;2022-08-21T11:25:11;27.20;99.90
15152;DHT22;7676;50.900;6.234;2022-08-21T11:30:15;27.10;99.90
15152;DHT22;7676;50.900;6.234;2022-08-21T11:46:37;26.90;99.90
15152;DHT22;7676;50.900;6.234;2022-08-21T11:57:24;26.70;99.90
15152;DHT22;7676;50.900;6.234;2022-08-21T12:02:34;27.20;99.90
15152;DHT22;7676;50.900;6.234;2022-08-21T12:07:43;27.40;99.90
15152;DHT22;7676;50.900;6.234;2022-08-21T12:12:46;27.30;99.90
15152;DHT22;7676;50.900;6.234;2022-08-21T12:17:59;27.40;99.90
15152;DHT22;7676;50.900;6.234;2022-08-21T12:28:21;27.40;99.90
15152;DHT22;7676;50.900;6.234;2022-08-21T12:33:25;27.60;99.40
15152;DHT22;7676;50.900;6.234;2022-08-21T12:38:50;27.40;99.10
15152;DHT22;7676;50.900;6.234;2022-08-21T12:44:00;28.00;99.30
15152;DHT22;7676;50.900;6.234;2022-08-21T12:49:16;28.00;97.90
15152;DHT22;7676;50.900;6.234;2022-08-21T12:54:32;28.00;99.30
15152;DHT22;7676;50.900;6.234;2022-08-21T12:59:39;28.20;97.20
15152;DHT22;7676;50.900;6.234;2022-08-21T13:04:42;28.30;97.30
15152;DHT22;7676;50.900;6.234;2022-08-21T13:10:14;28.00;96.20
15152;DHT22;7676;50.900;6.234;2022-08-21T13:15:28;27.30;97.10
15152;DHT22;7676;50.900;6.234;2022-08-21T13:20:39;27.90;97.10
15152;DHT22;7676;50.900;6.234;2022-08-21T13:25:42;27.70;97.00
15152;DHT22;7676;50.900;6.234;2022-08-21T13:30:47;27.70;97.70
15152;DHT22;7676;50.900;6.234;2022-08-21T13:36:05;27.30;95.10
15152;DHT22;7676;50.900;6.234;2022-08-21T13:46:18;27.90;96.90
15152;DHT22;7676;50.900;6.234;2022-08-21T13:51:24;27.40;95.80
15152;DHT22;7676;50.900;6.234;2022-08-21T13:56:30;26.90;95.90
15152;DHT22;7676;50.900;6.234;2022-08-21T14:01:36;27.00;96.00
15152;DHT22;7676;50.900;6.234;2022-08-21T14:06:41;26.90;94.10
15152;DHT22;7676;50.900;6.234;2022-08-21T14:11:44;26.80;94.20
15152;DHT22;7676;50.900;6.234;2022-08-21T14:16:55;26.80;95.70
15152;DHT22;7676;50.900;6.234;2022-08-21T14:21:57;26.80;97.20
15152;DHT22;7676;50.900;6.234;2022-08-21T14:27:06;26.40;96.40
15152;DHT22;7676;50.900;6.234;2022-08-21T14:32:18;26.30;95.40
15152;DHT22;7676;50.900;6.234;2022-08-21T14:37:26;26.30;96.70
15152;DHT22;7676;50.900;6.234;2022-08-21T14:42:28;26.30;96.30
15152;DHT22;7676;50.900;6.234;2022-08-21T14:47:31;26.60;94.10
15152;DHT22;7676;50.900;6.234;2022-08-21T14:52:33;26.40;93.70
15152;DHT22;7676;50.900;6.234;2022-08-21T14:57:36;26.40;93.60
15152;DHT22;7676;50.900;6.234;2022-08-21T15:02:39;26.30;94.00
15152;DHT22;7676;50.900;6.234;2022-08-21T15:07:41;26.10;94.20
15152;DHT22;7676;50.900;6.234;2022-08-21T15:12:43;26.00;94.80
15152;DHT22;7676;50.900;6.234;2022-08-21T15:17:46;26.20;95.80
15152;DHT22;7676;50.900;6.234;2022-08-21T15:22:49;26.60;94.90
15152;DHT22;7676;50.900;6.234;2022-08-21T15:27:52;26.60;93.90
15152;DHT22;7676;50.900;6.234;2022-08-21T15:32:54;26.30;96.20
15152;DHT22;7676;50.900;6.234;2022-08-21T15:37:57;26.30;96.00
15152;DHT22;7676;50.900;6.234;2022-08-21T15:43:01;26.30;96.90
15152;DHT22;7676;50.900;6.234;2022-08-21T15:48:06;26.30;96.50
15152;DHT22;7676;50.900;6.234;2022-08-21T15:53:08;26.30;96.90
15152;DHT22;7676;50.900;6.234;2022-08-21T15:58:15;26.00;97.20
15152;DHT22;7676;50.900;6.234;2022-08-21T16:03:18;26.20;98.30
15152;DHT22;7676;50.900;6.234;2022-08-21T16:08:24;26.30;98.40
15152;DHT22;7676;50.900;6.234;2022-08-21T16:13:39;26.40;98.10
15152;DHT22;7676;50.900;6.234;2022-08-21T16:18:45;26.40;98.50
15152;DHT22;7676;50.900;6.234;2022-08-21T16:23:48;26.10;98.20
15152;DHT22;7676;50.900;6.234;2022-08-21T16:28:52;26.40;98.90
15152;DHT22;7676;50.900;6.234;2022-08-21T16:33:57;26.30;99.00
15152;DHT22;7676;50.900;6.234;2022-08-21T16:39:01;26.00;98.50
15152;DHT22;7676;50.900;6.234;2022-08-21T16:44:05;25.90;98.80
15152;DHT22;7676;50.900;6.234;2022-08-21T16:49:08;25.90;99.00
15152;DHT22;7676;50.900;6.234;2022-08-21T16:54:11;25.90;98.90
15152;DHT22;7676;50.900;6.234;2022-08-21T16:59:15;25.80;98.40
15152;DHT22;7676;50.900;6.234;2022-08-21T17:04:19;25.80;98.50
15152;DHT22;7676;50.900;6.234;2022-08-21T17:09:21;25.60;98.90
15152;DHT22;7676;50.900;6.234;2022-08-21T17:14:24;25.80;99.60
15152;DHT22;7676;50.900;6.234;2022-08-21T17:19:26;25.70;99.00
15152;DHT22;7676;50.900;6.234;2022-08-21T17:24:28;25.70;99.40
15152;DHT22;7676;50.900;6.234;2022-08-21T17:29:34;25.50;99.50
15152;DHT22;7676;50.900;6.234;2022-08-21T17:34:38;25.40;99.90
15152;DHT22;7676;50.900;6.234;2022-08-21T17:39:41;25.20;99.90
15152;DHT22;7676;50.900;6.234;2022-08-21T17:44:45;24.80;99.90
15152;DHT22;7676;50.900;6.234;2022-08-21T17:49:47;24.50;99.90
15152;DHT22;7676;50.900;6.234;2022-08-21T17:54:50;24.70;99.90
15152;DHT22;7676;50.900;6.234;2022-08-21T17:59:53;24.70;99.90
15152;DHT22;7676;50.900;6.234;2022-08-21T18:04:59;24.40;99.90
15152;DHT22;7676;50.900;6.234;2022-08-21T18:10:04;24.30;99.90
15152;DHT22;7676;50.900;6.234;2022-08-21T18:15:10;24.30;99.90
15152;DHT22;7676;50.900;6.234;2022-08-21T18:20:15;24.50;99.90
15152;DHT22;7676;50.900;6.234;2022-08-21T18:25:19;24.40;99.90
15152;DHT22;7676;50.900;6.234;2022-08-21T18:30:22;24.40;99.90
15152;DHT22;7676;50.900;6.234;2022-08-21T18:35:25;24.50;99.90
15152;DHT22;7676;50.900;6.234;2022-08-21T18:40:28;24.70;99.90
15152;DHT22;7676;50.900;6.234;2022-08-21T18:45:31;24.70;99.90
15152;DHT22;7676;50.900;6.234;2022-08-21T18:50:37;24.70;99.90
15152;DHT22;7676;50.900;6.234;2022-08-21T18:55:41;24.70;99.90
15152;DHT22;7676;50.900;6.234;2022-08-21T19:00:48;24.50;99.90
15152;DHT22;7676;50.900;6.234;2022-08-21T19:05:53;24.50;99.90
15152;DHT22;7676;50.900;6.234;2022-08-21T19:10:56;24.70;99.90
15152;DHT22;7676;50.900;6.234;2022-08-21T19:16:00;24.80;99.90
15152;DHT22;7676;50.900;6.234;2022-08-21T19:21:06;24.90;99.90
15152;DHT22;7676;50.900;6.234;2022-08-21T19:26:09;27.20;99.90
15152;DHT22;7676;50.900;6.234;2022-08-21T19:31:17;25.20;99.90
15152;DHT22;7676;50.900;6.234;2022-08-21T19:36:25;25.20;99.90
15152;DHT22;7676;50.900;6.234;2022-08-21T19:41:31;25.20;99.90
15152;DHT22;7676;50.900;6.234;2022-08-21T19:46:37;25.20;99.90
15152;DHT22;7676;50.900;6.234;2022-08-21T19:51:42;25.00;99.90
15152;DHT22;7676;50.900;6.234;2022-08-21T19:56:45;24.80;99.90
15152;DHT22;7676;50.900;6.234;2022-08-21T20:01:48;24.80;99.90
15152;DHT22;7676;50.900;6.234;2022-08-21T20:06:53;24.90;99.90
15152;DHT22;7676;50.900;6.234;2022-08-21T20:11:57;24.90;99.90
15152;DHT22;7676;50.900;6.234;2022-08-21T20:17:09;24.90;99.90
15152;DHT22;7676;50.900;6.234;2022-08-21T20:22:12;24.80;99.90
15152;DHT22;7676;50.900;6.234;2022-08-21T20:27:21;24.80;99.90
15152;DHT22;7676;50.900;6.234;2022-08-21T20:32:24;24.80;99.90
15152;DHT22;7676;50.900;6.234;2022-08-21T20:37:27;24.70;99.90
15152;DHT22;7676;50.900;6.234;2022-08-21T20:42:47;24.60;99.90
15152;DHT22;7676;50.900;6.234;2022-08-21T20:47:56;24.50;99.90
15152;DHT22;7676;50.900;6.234;2022-08-21T20:53:15;24.30;99.90
15152;DHT22;7676;50.900;6.234;2022-08-21T20:58:33;24.10;99.90
15152;DHT22;7676;50.900;6.234;2022-08-21T21:03:54;23.70;99.90
15152;DHT22;7676;50.900;6.234;2022-08-21T21:09:13;23.40;99.90
15152;DHT22;7676;50.900;6.234;2022-08-21T21:14:19;23.10;99.90
15152;DHT22;7676;50.900;6.234;2022-08-21T21:19:41;22.90;99.90
15152;DHT22;7676;50.900;6.234;2022-08-21T21:35:28;21.80;99.90
15152;DHT22;7676;50.900;6.234;2022-08-21T21:40:50;21.70;99.90
15152;DHT22;7676;50.900;6.234;2022-08-21T21:56:34;21.70;99.90
15152;DHT22;7676;50.900;6.234;2022-08-21T22:01:58;21.80;99.90
15152;DHT22;7676;50.900;6.234;2022-08-21T22:18:00;22.30;99.90
15152;DHT22;7676;50.900;6.234;2022-08-21T22:23:06;22.30;99.90
15152;DHT22;7676;50.900;6.234;2022-08-21T22:28:18;22.30;99.90
15152;DHT22;7676;50.900;6.234;2022-08-21T22:33:27;22.20;99.90
15152;DHT22;7676;50.900;6.234;2022-08-21T22:38:34;22.40;99.90
15152;DHT22;7676;50.900;6.234;2022-08-21T22:49:04;22.80;99.90
15152;DHT22;7676;50.900;6.234;2022-08-21T22:54:12;23.00;99.90
15152;DHT22;7676;50.900;6.234;2022-08-21T22:59:30;23.10;99.90
15152;DHT22;7676;50.900;6.234;2022-08-21T23:04:45;23.10;99.90
15152;DHT22;7676;50.900;6.234;2022-08-21T23:09:49;23.20;99.90
15152;DHT22;7676;50.900;6.234;2022-08-21T23:14:54;23.20;99.90
15152;DHT22;7676;50.900;6.234;2022-08-21T23:20:09;23.20;99.90
15152;DHT22;7676;50.900;6.234;2022-08-21T23:36:11;23.20;99.90
15152;DHT22;7676;50.900;6.234;2022-08-21T23:52:26;23.10;99.90
15152;DHT22;7676;50.900;6.234;2022-08-21T23:57:40;23.00;99.90
